• Join FlightAware (Why Join?)
  • Login
  • US Flag 
08:17AM EDT


 

Airport Tracker/Info


-or-


 

Live Flight TrackerFlight Track Log ✈ AWE2690 ✈ 31-Aug-2013 ✈ KCLT - KABE

Flight Track Log - Related Links

Times and Time Zones

All times are in EDT time to prevent confusion due to time zone crossing. See the AWE2690 flight status page for this flight to view local times or setup timezone preferences in your user account.

Time Position Orientation Groundspeed Altitude Reporting Facility
EDT Latitude Longitude Course Direction KTS MPH feet Rate Location/Type
09:18PM 35.1489 -80.9272 170° South 194 223 2,800  Level Atlanta Center
09:19PM 35.1281 -80.8492 108° East 286 329 4,700 2,400 Climbing Atlanta Center
09:20PM 35.2236 -80.5499 30° Northeast  Level FlightAware Approximate
09:20PM 35.1656 -80.7614 62° Northeast 292 336 7,700  Level Atlanta Center
09:21PM 35.3167 -80.4752 90° East  Level FlightAware Approximate
09:21PM 35.2306 -80.6114 62° Northeast 309 356 11,200  Level Washington Center
09:22PM 35.3613 -80.3607 72° East  Level FlightAware Approximate
09:22PM 35.2769 -80.5025 62° Northeast 340 391 13,400  Level Washington Center
09:23PM 35.3206 -80.4058 61° Northeast 349 402 15,200 1,860 Climbing Washington Center
09:24PM 35.3689 -80.2914 63° Northeast 367 422 17,200 1,800 Climbing Washington Center
09:25PM 35.4217 -80.1697 62° Northeast 381 438 18,900 1,620 Climbing Washington Center
09:26PM 35.4625 -80.0292 70° East 394 453 20,600 1,620 Climbing Washington Center
09:27PM 35.4986 -79.8936 72° East 400 460 22,200 1,440 Climbing Washington Center
09:28PM 35.5328 -79.7525 73° East 413 475 23,500 1,260 Climbing Washington Center
09:29PM 35.5692 -79.6089 73° East 418 481 24,800 720 Climbing Washington Center
09:30PM 35.6178 -79.4631 68° East 446 513 25,000 60 Climbing Washington Center
09:31PM 35.7283 -79.3942 27° Northeast 424 488 25,000  Level Washington Center
09:32PM 35.8508 -79.3514 16° North 430 495 25,000  Level Washington Center
09:33PM 35.9711 -79.3058 17° North 437 503 25,000  Level Washington Center
09:34PM 36.0914 -79.2625 16° North 443 510 25,000  Level Washington Center
09:35PM 36.1864 -79.2258 17° North 443 510 25,000  Level Washington Center
09:36PM 36.3108 -79.1800 17° North 438 504 25,000  Level Washington Center
09:37PM 36.4272 -79.1339 18° North 438 504 25,000  Level Washington Center
09:38PM 36.5450 -79.0953 15° North 432 497 25,000  Level Washington Center
09:39PM 36.6675 -79.0436 19° North 423 487 25,000  Level Washington Center
09:40PM 36.7836 -78.9997 17° North 423 487 25,000  Level Washington Center
09:41PM 36.8892 -78.9600 17° North 429 494 25,000  Level Washington Center
09:42PM 37.0028 -78.9183 16° North 429 494 25,000  Level Washington Center
09:43PM 37.1186 -78.8764 16° North 429 494 25,000  Level Washington Center
09:44PM 37.2472 -78.8272 17° North 429 494 25,000  Level Washington Center
09:45PM 37.3611 -78.7822 17° North 429 494 25,000  Level Washington Center
09:46PM 37.4769 -78.7425 15° North 429 494 25,000  Level Washington Center
09:47PM 37.5803 -78.7022 17° North 429 494 25,000  Level Washington Center
09:48PM 37.6961 -78.6572 17° North 429 494 25,000  Level Washington Center
09:49PM 37.8097 -78.6144 17° North 429 494 25,000  Level Washington Center
09:50PM 37.9342 -78.5669 17° North 424 488 25,000  Level Washington Center
09:51PM 38.0456 -78.5239 17° North 424 488 25,000  Level Washington Center
09:52PM 38.1425 -78.4853 17° North 424 488 25,000  Level Washington Center
09:53PM 38.2542 -78.4447 16° North 424 488 25,000  Level Washington Center
09:54PM 38.3656 -78.4014 17° North 419 482 25,000  Level Washington Center
09:55PM 38.4792 -78.3553 18° North 419 482 25,000  Level Washington Center
09:56PM 38.5908 -78.3117 17° North 424 488 25,000  Level Washington Center
09:57PM 38.7003 -78.2678 17° North 424 488 25,000  Level Washington Center
09:58PM 38.8117 -78.2264 16° North 424 488 25,000  Level Washington Center
09:59PM 38.9214 -78.1664 23° Northeast 424 488 25,000  Level Washington Center
10:00PM 39.0375 -78.0956 25° Northeast 424 488 25,000  Level Washington Center
10:01PM 39.1450 -78.0297 25° Northeast 419 482 25,000 -840 Level Washington Center
10:03PM 39.3686 -77.8964 25° Northeast 441 507 22,600 -1,380 Descending New York Center
10:04PM 39.4811 -77.8269 25° Northeast 441 507 20,900 -1,740 Descending New York Center
10:05PM 39.5872 -77.7622 25° Northeast 436 502 19,200 -960 Descending New York Center
10:06PM 39.6933 -77.6972 25° Northeast 429 494 19,000 -120 Descending New York Center
10:07PM 39.7711 -77.5778 50° Northeast 417 480 19,000 -780 Level New York Center
10:08PM 39.8269 -77.4425 62° Northeast 411 473 17,500 -1,620 Descending New York Center
10:09PM 39.8819 -77.3125 61° Northeast 416 479 15,800 -1,260 Descending New York Center
10:10PM 39.9369 -77.1878 60° Northeast 406 467 15,000 -420 Descending New York Center
10:11PM 39.9872 -77.0675 61° Northeast 394 453 15,000 -840 Level New York Center
10:12PM 40.0422 -76.9342 62° Northeast 388 447 13,400 -1,500 Descending New York Center
10:13PM 40.1042 -76.8258 53° Northeast 405 466 12,000 -1,200 Descending New York Center
10:14PM 40.1803 -76.7183 47° Northeast 407 468 11,000 -540 Descending New York Center
10:15PM 40.2561 -76.6214 44° Northeast 391 450 11,000  Level New York Center
10:16PM 40.3386 -76.5139 45° Northeast 373 429 11,000  Level New York Center
10:17PM 40.4139 -76.4219 43° Northeast 373 429 11,000  Level New York Center
10:18PM 40.4828 -76.3322 45° Northeast 368 423 11,000 -420 Level New York Center
10:19PM 40.5400 -76.2631 43° Northeast 333 383 10,200 -1,020 Descending New York Center
10:20PM 40.5917 -76.1825 50° Northeast 297 342 9,000 -900 Descending New York Center
10:21PM 40.6300 -76.0733 65° Northeast 283 326 8,400 -1,020 Descending New York Center
10:22PM 40.6511 -75.9736 74° East 288 331 7,000 -1,200 Descending New York Center
10:23PM 40.6681 -75.8736 77° East 283 326 6,000 -1,200 Descending New York Center
10:24PM 40.6869 -75.7739 76° East 277 319 4,700 -1,020 Descending New York Center
10:25PM 40.7033 -75.6819 77° East 277 319 4,000 -660 Descending New York Center
10:26PM 40.7239 -75.5875 74° East 277 319 3,400 -600 Descending New York Center
10:27PM 40.7419 -75.4958 75° East 246 283 2,900 -300 Descending New York Center
10:28PM 40.7636 -75.4286 67° East 216 249 2,800 -360 Descending New York Center
10:29PM 40.7367 -75.3722 122° Southeast 151 174 2,200 -540 Descending New York Center
10:30PM 40.7056 -75.3617 166° South 136 157 1,800 -420 Descending New York Center